Main page
METAR-TAF:

METAR-TAF

Airports :

Sørkjosen Airport

Sørkjosen, Norway

latitude: 69-47N, longitude: 020-58E, elevation: 0 m

Current weather observation

The report was made 9 hours and 35 minutes ago, at 18:50 UTC
Wind 6 kt from the West
Temperature -3°C
Humidity 80%
Pressure 990 hPa
Visibility: 8000 m
Few clouds at a height of 2000 ft
Broken clouds at a height of 4000 ft
light snow showers

METAR: ENSR 241850Z 27006KT 8000 -SHSN FEW020 BKN040 M03/M06 Q0990 RMK WIND 1119FT 25014KT

Time: 05:25 (04:25 UTC)


TAF: missing

Weather observations and forecasts of more than 4000 airports (METAR and TAF reports).

The available stations are represented by yellow and red dots on the map.

Hover mouse over dot to see the name of the station.

Then click to see weather observations and forecasts.

To change the map : click on the green buttons with a black cross to zoom in, on the green button with a dash to zoom out, or on the green arrows for adjacent maps.


METAR-TAF: